Time;durP1;ratioP1;P1;durP2;ratioP2;P2;SDS_P1;SDS_P2;PMS_P1;PMS_P2;Temp;Humidity;BMP_temperature;BMP_pressure;BME280_temperature;BME280_humidity;BME280_pressure;Samples;Min_cycle;Max_cycle;Signal;HPM_P1;HPM_P2
2023/07/30 00:00:43;;;;;;;4.78;2.08;;;17.10;99.90;;;;;;5070350;28;20712;-78
2023/07/30 00:03:09;;;;;;;7.90;1.92;;;17.10;99.90;;;;;;5070566;28;20221;-75
2023/07/30 00:05:36;;;;;;;7.38;2.00;;;17.10;99.90;;;;;;5069832;28;20204;-74
2023/07/30 00:08:03;;;;;;;4.93;1.80;;;17.00;99.90;;;;;;5069824;28;20923;-74
2023/07/30 00:10:30;;;;;;;3.95;2.22;;;17.00;99.90;;;;;;5068853;28;20193;-75
2023/07/30 00:12:57;;;;;;;5.35;2.08;;;17.00;99.90;;;;;;5069264;28;20221;-77
2023/07/30 00:15:24;;;;;;;5.30;1.83;;;17.00;99.90;;;;;;5059041;28;20202;-76
2023/07/30 00:17:50;;;;;;;5.78;1.80;;;16.90;99.90;;;;;;5037238;28;20229;-75
2023/07/30 00:20:17;;;;;;;8.45;2.17;;;16.90;99.90;;;;;;5061838;28;20193;-76
2023/07/30 00:22:44;;;;;;;4.22;2.03;;;16.90;99.90;;;;;;5070023;28;20287;-74
2023/07/30 00:25:11;;;;;;;7.82;2.40;;;17.00;99.90;;;;;;5070181;28;20201;-76
2023/07/30 00:27:38;;;;;;;4.60;2.38;;;16.80;99.90;;;;;;5068543;28;20216;-75
2023/07/30 00:30:05;;;;;;;5.32;2.10;;;16.80;99.90;;;;;;5069476;28;20569;-75
2023/07/30 00:32:32;;;;;;;10.63;2.53;;;16.80;99.90;;;;;;5068162;28;20273;-75
2023/07/30 00:34:59;;;;;;;6.53;2.00;;;16.70;99.90;;;;;;5069548;28;20741;-75
2023/07/30 00:37:26;;;;;;;8.98;2.45;;;16.70;99.90;;;;;;5065968;28;20235;-76
2023/07/30 00:39:53;;;;;;;3.85;2.47;;;16.70;99.90;;;;;;5068645;28;20299;-76
2023/07/30 00:42:20;;;;;;;5.87;2.27;;;16.70;99.90;;;;;;5069134;28;20668;-75
2023/07/30 00:44:46;;;;;;;8.55;2.78;;;16.60;99.90;;;;;;5069976;28;20550;-75
2023/07/30 00:47:13;;;;;;;7.90;2.80;;;16.60;99.90;;;;;;5069552;28;20204;-75
2023/07/30 00:49:40;;;;;;;5.15;2.20;;;16.70;99.90;;;;;;5069753;28;20697;-75
2023/07/30 00:52:07;;;;;;;6.47;2.70;;;16.60;99.90;;;;;;5068641;28;20200;-78
2023/07/30 00:54:34;;;;;;;6.57;2.25;;;16.60;99.90;;;;;;5068792;28;20232;-76
2023/07/30 00:57:02;;;;;;;5.18;2.20;;;16.50;99.90;;;;;;5066364;28;20670;-76
2023/07/30 00:59:28;;;;;;;8.20;2.80;;;16.50;99.90;;;;;;5069908;28;20558;-77
2023/07/30 01:01:58;;;;;;;6.68;2.72;;;16.50;99.90;;;;;;5069519;28;20822;-75
2023/07/30 01:04:26;;;;;;;7.50;2.90;;;16.50;99.90;;;;;;5060756;28;20648;-75
2023/07/30 01:06:52;;;;;;;6.87;2.80;;;16.50;99.90;;;;;;5067863;28;20283;-78
2023/07/30 01:09:19;;;;;;;5.07;2.70;;;16.50;99.90;;;;;;5068197;28;20225;-76
2023/07/30 01:11:47;;;;;;;11.27;2.87;;;16.50;99.90;;;;;;5068569;28;20813;-75
2023/07/30 01:14:15;;;;;;;5.70;3.07;;;16.50;99.90;;;;;;5069336;28;20212;-75
2023/07/30 01:16:42;;;;;;;8.88;2.42;;;16.40;99.90;;;;;;5069362;28;20223;-76
2023/07/30 01:19:10;;;;;;;5.60;3.23;;;16.40;99.90;;;;;;5069047;28;20196;-76
2023/07/30 01:21:37;;;;;;;8.33;2.97;;;16.40;99.90;;;;;;5063694;28;20208;-76
2023/07/30 01:24:04;;;;;;;3.70;2.60;;;16.30;99.90;;;;;;5069197;28;20695;-75
2023/07/30 01:26:39;;;;;;;5.73;2.60;;;16.30;99.90;;;;;;5068439;28;20217;-78
2023/07/30 01:29:12;;;;;;;5.83;2.43;;;16.30;99.90;;;;;;5065044;28;20238;-75
2023/07/30 01:31:41;;;;;;;6.60;2.97;;;16.30;99.90;;;;;;5068096;28;20220;-75
2023/07/30 01:34:11;;;;;;;6.53;2.97;;;16.20;99.90;;;;;;5050377;28;20703;-75
2023/07/30 01:36:39;;;;;;;8.00;2.40;;;16.30;99.90;;;;;;5058923;28;20536;-75
2023/07/30 01:39:09;;;;;;;6.53;2.83;;;16.20;99.90;;;;;;5069140;28;20211;-77
2023/07/30 01:41:35;;;;;;;9.73;2.70;;;16.20;99.90;;;;;;5068217;28;20227;-75
2023/07/30 01:44:03;;;;;;;5.87;2.60;;;16.20;99.90;;;;;;5060739;28;20197;-76
2023/07/30 01:46:30;;;;;;;8.07;2.80;;;16.20;99.90;;;;;;5058220;28;20196;-77
2023/07/30 01:48:57;;;;;;;8.60;2.60;;;16.10;99.90;;;;;;5069288;28;20215;-79
2023/07/30 01:51:23;;;;;;;5.23;2.30;;;16.10;99.90;;;;;;5067049;28;20208;-76
2023/07/30 01:53:50;;;;;;;5.60;2.47;;;16.10;99.90;;;;;;5065757;28;20301;-75
2023/07/30 01:56:17;;;;;;;3.90;2.47;;;16.10;99.90;;;;;;5068065;28;20591;-76
2023/07/30 01:58:44;;;;;;;5.63;2.90;;;16.10;99.90;;;;;;5068085;28;20212;-79
2023/07/30 02:01:11;;;;;;;9.67;3.30;;;16.00;99.90;;;;;;5050771;28;20579;-76
2023/07/30 02:03:37;;;;;;;5.47;2.80;;;16.00;99.90;;;;;;5055199;28;20560;-76
2023/07/30 02:06:04;;;;;;;6.75;2.63;;;15.90;99.90;;;;;;5068151;28;20227;-76
2023/07/30 02:08:31;;;;;;;6.67;2.37;;;15.90;99.90;;;;;;5066858;28;20648;-76
2023/07/30 02:10:59;;;;;;;6.80;2.23;;;15.90;99.90;;;;;;5068103;28;20200;-77
2023/07/30 02:13:26;;;;;;;5.63;2.77;;;15.90;99.90;;;;;;5059687;28;20582;-77
2023/07/30 02:15:53;;;;;;;6.47;2.63;;;15.80;99.90;;;;;;5049904;28;20204;-76
2023/07/30 02:18:19;;;;;;;4.73;2.30;;;15.80;99.90;;;;;;5067601;28;20667;-76
2023/07/30 02:20:46;;;;;;;8.70;3.07;;;15.80;99.90;;;;;;5067922;28;20197;-77
2023/07/30 02:23:15;;;;;;;6.40;2.60;;;15.60;99.90;;;;;;5068097;28;20269;-77
2023/07/30 02:25:43;;;;;;;12.00;2.90;;;15.70;99.90;;;;;;5061212;28;20703;-77
2023/07/30 02:28:10;;;;;;;6.87;2.60;;;15.70;99.90;;;;;;5061205;28;20235;-75
2023/07/30 02:30:41;;;;;;;7.47;2.17;;;15.70;99.90;;;;;;5067436;28;20204;-76
2023/07/30 02:33:08;;;;;;;9.57;2.67;;;15.70;99.90;;;;;;5062563;28;20223;-77
2023/07/30 02:35:35;;;;;;;7.47;3.20;;;15.70;99.90;;;;;;5060444;28;20357;-76
2023/07/30 02:38:02;;;;;;;7.47;2.97;;;15.70;99.90;;;;;;5062143;28;20232;-76
2023/07/30 02:40:30;;;;;;;9.20;2.80;;;15.70;99.90;;;;;;5055153;28;20231;-77
2023/07/30 02:42:57;;;;;;;4.43;2.57;;;15.70;99.90;;;;;;5067376;28;20220;-74
2023/07/30 02:45:25;;;;;;;8.03;2.80;;;15.70;99.90;;;;;;5064220;28;20205;-76
2023/07/30 02:47:52;;;;;;;7.17;3.20;;;15.70;99.90;;;;;;5062871;28;20204;-76
2023/07/30 02:50:19;;;;;;;5.93;2.80;;;15.60;99.90;;;;;;5066773;28;20626;-75
2023/07/30 02:52:47;;;;;;;17.97;3.23;;;15.70;99.90;;;;;;5066190;28;20196;-75
2023/07/30 02:55:16;;;;;;;6.63;2.90;;;15.70;99.90;;;;;;5060442;28;20203;-75
2023/07/30 02:57:42;;;;;;;9.50;3.43;;;15.70;99.90;;;;;;5067790;28;20276;-78
2023/07/30 03:00:10;;;;;;;6.70;2.80;;;15.70;99.90;;;;;;5063987;28;20544;-75
2023/07/30 03:02:37;;;;;;;6.73;3.23;;;15.60;99.90;;;;;;5067678;28;20203;-75
2023/07/30 03:05:04;;;;;;;3.97;2.33;;;15.70;99.90;;;;;;5066863;28;20232;-76
2023/07/30 03:07:31;;;;;;;8.37;2.70;;;15.70;99.90;;;;;;5067442;28;20220;-77
2023/07/30 03:09:59;;;;;;;7.37;2.90;;;15.70;99.90;;;;;;5067494;28;20330;-76
2023/07/30 03:12:25;;;;;;;7.17;3.33;;;15.70;99.90;;;;;;5066632;28;20216;-76
2023/07/30 03:14:52;;;;;;;8.33;2.97;;;15.70;99.90;;;;;;5067567;28;20215;-76
2023/07/30 03:17:19;;;;;;;6.87;2.97;;;15.70;99.90;;;;;;5069968;28;20235;-75
2023/07/30 03:19:46;;;;;;;10.60;2.73;;;15.70;99.90;;;;;;5070761;28;20284;-78
2023/07/30 03:22:14;;;;;;;6.50;2.67;;;15.70;99.90;;;;;;5054893;28;20278;-76
2023/07/30 03:24:41;;;;;;;12.53;3.07;;;15.80;99.90;;;;;;5071223;28;20302;-76
2023/07/30 03:27:08;;;;;;;11.77;3.10;;;15.70;99.90;;;;;;5052892;28;20262;-75
2023/07/30 03:29:34;;;;;;;7.67;2.87;;;15.70;99.90;;;;;;5071421;28;20239;-77
2023/07/30 03:32:02;;;;;;;5.63;2.67;;;15.70;99.90;;;;;;5071130;28;20216;-75
2023/07/30 03:34:28;;;;;;;5.60;3.23;;;15.70;99.90;;;;;;5071151;28;20362;-76
2023/07/30 03:36:55;;;;;;;9.97;4.40;;;15.70;99.90;;;;;;5057331;28;20220;-76
2023/07/30 03:39:25;;;;;;;8.27;3.40;;;15.70;99.90;;;;;;5071059;28;20686;-76
2023/07/30 03:41:51;;;;;;;11.77;3.47;;;15.60;99.90;;;;;;5069837;28;20286;-75
2023/07/30 03:44:18;;;;;;;9.07;3.27;;;15.60;99.90;;;;;;5069395;28;20201;-75
2023/07/30 03:46:46;;;;;;;11.40;3.00;;;15.60;99.90;;;;;;5070803;28;20672;-75
2023/07/30 03:49:14;;;;;;;6.50;2.53;;;15.60;99.90;;;;;;5051887;28;20243;-76
2023/07/30 03:51:40;;;;;;;7.03;3.20;;;15.60;99.90;;;;;;5070864;28;20262;-74
2023/07/30 03:54:07;;;;;;;11.47;3.50;;;15.60;99.90;;;;;;5058751;28;20212;-75
2023/07/30 03:56:34;;;;;;;9.70;3.50;;;15.60;99.90;;;;;;5068225;28;20212;-76
2023/07/30 03:59:01;;;;;;;8.43;3.00;;;15.60;99.90;;;;;;5070882;28;20238;-77
2023/07/30 04:01:30;;;;;;;8.07;3.00;;;15.60;99.90;;;;;;5070571;28;20197;-76
2023/07/30 04:03:57;;;;;;;10.43;4.07;;;15.60;99.90;;;;;;5069015;28;20295;-75
2023/07/30 04:06:24;;;;;;;8.17;3.67;;;15.60;99.90;;;;;;5068652;28;20208;-76
2023/07/30 04:08:50;;;;;;;8.73;3.17;;;15.60;99.90;;;;;;5070188;28;20527;-77
2023/07/30 04:11:17;;;;;;;8.47;3.30;;;15.70;99.90;;;;;;5070518;28;20200;-77
2023/07/30 04:13:44;;;;;;;7.60;3.47;;;15.60;99.90;;;;;;5059676;28;20213;-76
2023/07/30 04:16:11;;;;;;;11.07;3.83;;;15.60;99.90;;;;;;5070482;28;20212;-78
2023/07/30 04:18:38;;;;;;;11.00;3.60;;;15.70;99.90;;;;;;5070440;28;20629;-75
2023/07/30 04:21:05;;;;;;;11.00;3.90;;;15.80;99.90;;;;;;5069311;28;20204;-77
2023/07/30 04:23:31;;;;;;;15.23;3.65;;;15.70;99.90;;;;;;5069875;28;20319;-78
2023/07/30 04:25:58;;;;;;;12.63;4.30;;;15.80;99.90;;;;;;5052221;28;20192;-76
2023/07/30 04:28:25;;;;;;;8.90;4.00;;;15.90;99.90;;;;;;5068066;28;20220;-76
2023/07/30 04:30:52;;;;;;;8.93;4.05;;;15.90;99.90;;;;;;5070003;28;20572;-77
2023/07/30 04:33:19;;;;;;;14.30;4.17;;;16.00;99.90;;;;;;5069798;28;20216;-76
2023/07/30 04:35:46;;;;;;;12.63;4.32;;;16.10;99.90;;;;;;5048262;28;20546;-77
2023/07/30 04:38:13;;;;;;;16.15;4.70;;;16.10;99.90;;;;;;5070303;28;20548;-76
2023/07/30 04:40:40;;;;;;;18.58;5.38;;;16.10;99.90;;;;;;5067900;28;20315;-75
2023/07/30 04:43:08;;;;;;;13.35;4.80;;;16.20;99.90;;;;;;5052206;28;20228;-76
2023/07/30 04:45:34;;;;;;;11.48;4.80;;;16.30;99.90;;;;;;5069416;28;20232;-76
2023/07/30 04:48:01;;;;;;;15.20;5.93;;;16.30;99.90;;;;;;5069822;28;20250;-76
2023/07/30 04:50:28;;;;;;;14.73;5.95;;;16.40;99.90;;;;;;5069493;28;20242;-78
2023/07/30 04:52:55;;;;;;;12.02;5.45;;;16.40;99.90;;;;;;5067141;28;20211;-76
2023/07/30 04:55:22;;;;;;;11.32;5.57;;;16.40;99.90;;;;;;5056231;28;20244;-76
2023/07/30 04:57:49;;;;;;;15.93;5.88;;;16.40;99.90;;;;;;5051252;28;20228;-79
2023/07/30 05:00:16;;;;;;;14.55;6.13;;;16.50;99.90;;;;;;5058671;28;20207;-76
2023/07/30 05:02:43;;;;;;;18.02;7.05;;;16.50;99.90;;;;;;5067955;28;20503;-75
2023/07/30 05:05:10;;;;;;;16.65;6.75;;;16.40;99.90;;;;;;5069454;28;20628;-76
2023/07/30 05:07:37;;;;;;;16.33;6.10;;;16.50;99.90;;;;;;5069001;28;20684;-75
2023/07/30 05:10:06;;;;;;;11.48;6.15;;;16.60;99.90;;;;;;5069355;28;20232;-76
2023/07/30 05:12:33;;;;;;;17.95;6.70;;;16.70;99.90;;;;;;5068174;28;20296;-75
2023/07/30 05:15:00;;;;;;;25.33;7.03;;;16.80;99.90;;;;;;5069530;28;20204;-76
2023/07/30 05:17:27;;;;;;;21.23;7.03;;;16.70;99.90;;;;;;5064029;28;20298;-76
2023/07/30 05:19:53;;;;;;;23.33;6.68;;;16.80;99.90;;;;;;5058382;28;20224;-76
2023/07/30 05:22:20;;;;;;;19.52;6.80;;;16.90;99.90;;;;;;5063614;28;20301;-75
2023/07/30 05:24:47;;;;;;;15.00;7.18;;;16.90;99.90;;;;;;5069321;28;20247;-78
2023/07/30 05:27:17;;;;;;;17.40;7.28;;;17.00;99.90;;;;;;5067969;28;20212;-76
2023/07/30 05:29:44;;;;;;;20.55;8.07;;;17.10;99.90;;;;;;5069292;28;20231;-76
2023/07/30 05:32:14;;;;;;;22.10;7.82;;;17.10;99.90;;;;;;5051432;28;20274;-76
2023/07/30 05:34:41;;;;;;;20.95;7.53;;;17.30;99.90;;;;;;5065507;28;20225;-78
2023/07/30 05:37:08;;;;;;;19.35;6.95;;;17.40;99.90;;;;;;5065108;28;20254;-76
2023/07/30 05:39:34;;;;;;;26.38;8.00;;;17.40;99.90;;;;;;5068350;28;20212;-75
2023/07/30 05:42:01;;;;;;;23.95;7.22;;;17.60;99.90;;;;;;5060391;28;20217;-76
2023/07/30 05:44:32;;;;;;;18.90;6.53;;;17.70;99.90;;;;;;5066975;28;20231;-76
2023/07/30 05:46:59;;;;;;;17.90;7.13;;;17.90;99.90;;;;;;5068287;28;20261;-76
2023/07/30 05:49:26;;;;;;;13.32;6.00;;;18.00;99.90;;;;;;5068110;28;20706;-76
2023/07/30 05:51:52;;;;;;;14.55;6.45;;;17.90;99.90;;;;;;5068076;28;20204;-76
2023/07/30 05:54:19;;;;;;;19.38;6.93;;;17.90;99.90;;;;;;5066192;28;20238;-76
2023/07/30 05:56:46;;;;;;;16.55;7.60;;;18.00;99.90;;;;;;5068451;28;20707;-78
2023/07/30 05:59:14;;;;;;;15.13;7.03;;;18.10;99.90;;;;;;5068080;28;20228;-75
2023/07/30 06:01:46;;;;;;;16.27;7.95;;;18.10;99.90;;;;;;5066379;28;20207;-75
2023/07/30 06:04:13;;;;;;;16.58;6.85;;;18.10;99.90;;;;;;5068277;28;20232;-76
2023/07/30 06:06:39;;;;;;;19.60;7.05;;;18.20;99.90;;;;;;5062226;28;20270;-75
2023/07/30 06:09:06;;;;;;;14.30;6.60;;;18.30;99.90;;;;;;5068128;28;20204;-76
2023/07/30 06:11:33;;;;;;;17.15;5.88;;;18.40;99.90;;;;;;5068280;28;20212;-75
2023/07/30 06:14:00;;;;;;;15.57;6.32;;;18.50;99.90;;;;;;5050470;28;20226;-77
2023/07/30 06:16:27;;;;;;;14.45;6.32;;;18.60;99.90;;;;;;5064081;28;20244;-76
2023/07/30 06:18:54;;;;;;;19.25;6.68;;;18.70;99.90;;;;;;5068298;28;20224;-76
2023/07/30 06:21:21;;;;;;;19.88;6.60;;;18.70;99.90;;;;;;5063221;28;20661;-77
2023/07/30 06:23:48;;;;;;;17.20;5.93;;;18.90;99.90;;;;;;5068149;28;20258;-75
2023/07/30 06:26:14;;;;;;;17.92;6.43;;;19.10;99.90;;;;;;5067254;28;20200;-78
2023/07/30 06:28:41;;;;;;;13.02;6.28;;;19.30;99.90;;;;;;5067998;28;20270;-75
2023/07/30 06:31:08;;;;;;;14.45;5.82;;;19.40;99.90;;;;;;5067927;28;20200;-75
2023/07/30 06:33:35;;;;;;;11.75;5.82;;;19.50;99.90;;;;;;5065068;28;20252;-76
2023/07/30 06:36:02;;;;;;;13.13;6.53;;;19.50;99.90;;;;;;5083042;28;20196;-75
2023/07/30 06:38:30;;;;;;;13.07;6.03;;;19.60;99.90;;;;;;5078570;28;20282;-76
2023/07/30 06:40:57;;;;;;;16.10;6.78;;;19.60;99.90;;;;;;5080336;28;20205;-75
2023/07/30 06:43:24;;;;;;;16.48;6.63;;;19.50;99.90;;;;;;5070054;28;20213;-75
2023/07/30 06:45:52;;;;;;;14.07;6.40;;;19.60;99.90;;;;;;5063487;28;20683;-76
2023/07/30 06:48:19;;;;;;;15.20;6.95;;;19.60;99.90;;;;;;5061407;28;20253;-76
2023/07/30 06:50:46;;;;;;;14.73;6.35;;;19.60;99.90;;;;;;5062348;28;20197;-78
2023/07/30 06:53:13;;;;;;;21.05;6.72;;;19.70;99.90;;;;;;5064800;28;20681;-75
2023/07/30 06:55:40;;;;;;;13.50;6.57;;;19.80;99.90;;;;;;5072621;28;20299;-78
2023/07/30 06:58:07;;;;;;;17.77;6.70;;;20.00;99.90;;;;;;5071803;28;20286;-78
2023/07/30 07:00:33;;;;;;;17.88;6.15;;;20.10;99.90;;;;;;5071157;28;20625;-78
2023/07/30 07:03:00;;;;;;;16.90;5.45;;;20.40;99.90;;;;;;5071971;28;20212;-77
2023/07/30 07:05:27;;;;;;;16.80;6.45;;;20.50;99.90;;;;;;5071386;28;20204;-77
2023/07/30 07:07:54;;;;;;;15.40;5.78;;;20.50;99.90;;;;;;5071367;28;20281;-76
2023/07/30 07:10:21;;;;;;;16.55;7.40;;;20.60;99.90;;;;;;5068225;28;20653;-75
2023/07/30 07:12:48;;;;;;;16.33;6.72;;;20.50;99.90;;;;;;5071130;28;20220;-75
2023/07/30 07:15:15;;;;;;;13.75;6.28;;;20.30;99.90;;;;;;5069706;28;20204;-75
2023/07/30 07:17:42;;;;;;;12.50;6.50;;;20.20;99.90;;;;;;5071210;28;20206;-75
2023/07/30 07:20:10;;;;;;;12.75;6.30;;;20.20;99.90;;;;;;5065066;28;20251;-77
2023/07/30 07:22:37;;;;;;;11.80;5.72;;;20.20;99.90;;;;;;5060370;28;20666;-76
2023/07/30 07:25:04;;;;;;;15.48;5.75;;;20.10;99.90;;;;;;5062099;28;20193;-75
2023/07/30 07:27:31;;;;;;;9.45;5.28;;;20.00;99.90;;;;;;5053487;28;20208;-76
2023/07/30 07:29:59;;;;;;;15.85;5.85;;;19.80;99.90;;;;;;5068322;28;20218;-78
2023/07/30 07:32:26;;;;;;;12.48;6.25;;;19.80;99.90;;;;;;5061961;28;20700;-74
2023/07/30 07:34:53;;;;;;;10.77;4.95;;;19.80;99.90;;;;;;5068894;28;20308;-75
2023/07/30 07:37:20;;;;;;;10.52;5.07;;;19.80;99.90;;;;;;5068005;28;20211;-76
2023/07/30 07:39:47;;;;;;;19.42;6.00;;;19.90;99.90;;;;;;5067325;28;20375;-74
2023/07/30 07:42:14;;;;;;;10.15;4.70;;;19.90;99.90;;;;;;5061925;28;20208;-76
2023/07/30 07:44:42;;;;;;;11.85;5.13;;;19.90;99.90;;;;;;5067230;28;20250;-76
2023/07/30 07:47:09;;;;;;;15.30;5.57;;;19.90;99.90;;;;;;5052432;28;20336;-76
2023/07/30 07:49:36;;;;;;;14.30;5.60;;;20.00;99.90;;;;;;5068889;28;20280;-76
2023/07/30 07:52:03;;;;;;;9.68;5.35;;;20.00;99.90;;;;;;5070805;28;20725;-75
2023/07/30 07:54:30;;;;;;;11.10;4.85;;;20.00;99.90;;;;;;5070750;28;20200;-77
2023/07/30 07:56:56;;;;;;;10.30;5.22;;;20.10;99.90;;;;;;5053207;28;20228;-77
2023/07/30 07:59:24;;;;;;;10.18;4.45;;;20.10;99.90;;;;;;5070825;28;20231;-75
2023/07/30 08:01:51;;;;;;;14.43;4.75;;;20.20;99.90;;;;;;5070542;28;20196;-74
2023/07/30 08:04:18;;;;;;;13.50;5.82;;;20.20;99.90;;;;;;5071068;28;20208;-74
2023/07/30 08:06:45;;;;;;;12.27;4.70;;;20.20;99.90;;;;;;5064524;28;20204;-74
2023/07/30 08:09:12;;;;;;;13.30;4.97;;;20.30;99.90;;;;;;5063758;28;20204;-76
2023/07/30 08:11:39;;;;;;;13.63;4.25;;;20.40;99.90;;;;;;5057848;28;20239;-75
2023/07/30 08:14:05;;;;;;;10.75;4.38;;;20.40;99.90;;;;;;5070833;28;20507;-76
2023/07/30 08:16:32;;;;;;;12.52;4.28;;;20.40;99.90;;;;;;5070645;28;20203;-75
2023/07/30 08:18:59;;;;;;;9.27;4.20;;;20.50;99.90;;;;;;5066645;28;20316;-76
2023/07/30 08:21:26;;;;;;;11.70;4.45;;;20.70;99.90;;;;;;5069911;28;20369;-75
2023/07/30 08:23:53;;;;;;;12.38;4.68;;;20.80;99.90;;;;;;5070304;28;20203;-74
2023/07/30 08:26:19;;;;;;;12.30;5.82;;;20.70;99.90;;;;;;5069661;28;20208;-73
2023/07/30 08:28:46;;;;;;;12.23;4.43;;;20.90;99.90;;;;;;5065039;28;20283;-74
2023/07/30 08:31:13;;;;;;;11.65;3.85;;;21.10;99.90;;;;;;5069423;28;20204;-74
2023/07/30 08:33:40;;;;;;;12.82;3.80;;;21.10;99.90;;;;;;5069070;28;20240;-78
2023/07/30 08:36:07;;;;;;;7.00;3.38;;;21.20;99.90;;;;;;5066060;28;20200;-74
2023/07/30 08:38:33;;;;;;;7.97;3.20;;;21.10;99.90;;;;;;5065818;28;20228;-74
2023/07/30 08:41:00;;;;;;;9.60;3.40;;;21.10;99.90;;;;;;5051559;28;20227;-76
2023/07/30 08:43:28;;;;;;;8.48;3.28;;;21.30;99.90;;;;;;5060134;28;20263;-77
2023/07/30 08:45:55;;;;;;;7.18;3.60;;;21.40;99.90;;;;;;5036178;28;20204;-75
2023/07/30 08:48:21;;;;;;;10.30;3.60;;;21.60;99.90;;;;;;5065008;28;20197;-76
2023/07/30 08:50:49;;;;;;;9.93;3.42;;;21.60;99.90;;;;;;5042652;28;20253;-75
2023/07/30 08:53:16;;;;;;;9.10;3.05;;;21.80;99.90;;;;;;5062552;28;20274;-78
2023/07/30 08:55:44;;;;;;;7.85;3.25;;;21.70;99.90;;;;;;5058026;28;20730;-75
2023/07/30 08:58:12;;;;;;;6.35;3.40;;;21.40;99.90;;;;;;5051385;28;20661;-75
2023/07/30 09:00:42;;;;;;;8.88;2.85;;;21.40;99.90;;;;;;5068965;28;20505;-77
2023/07/30 09:03:10;;;;;;;11.20;2.95;;;21.30;99.90;;;;;;5050412;28;20302;-75
2023/07/30 09:05:38;;;;;;;12.23;2.97;;;21.20;99.90;;;;;;5069395;28;20744;-75
2023/07/30 09:08:05;;;;;;;11.88;2.88;;;21.10;99.90;;;;;;5069814;28;20257;-75
2023/07/30 09:10:32;;;;;;;9.32;3.17;;;20.70;99.90;;;;;;5069410;28;20658;-74
2023/07/30 09:12:59;;;;;;;7.55;3.03;;;20.60;99.90;;;;;;5068182;28;20212;-75
2023/07/30 09:15:34;;;;;;;7.45;2.70;;;20.60;99.90;;;;;;5068917;28;20204;-74
2023/07/30 09:18:01;;;;;;;7.80;2.88;;;20.50;99.90;;;;;;5063703;28;20664;-74
2023/07/30 09:20:42;;;;;;;10.68;3.50;;;20.40;99.90;;;;;;5068868;28;20320;-75
2023/07/30 09:23:10;;;;;;;8.25;3.25;;;20.40;99.90;;;;;;5069182;28;20555;-76
2023/07/30 09:25:38;;;;;;;9.63;3.35;;;20.40;99.90;;;;;;5056325;28;20312;-74
2023/07/30 09:28:08;;;;;;;10.10;3.17;;;20.40;99.90;;;;;;5068953;28;20247;-74
2023/07/30 09:30:35;;;;;;;9.38;3.08;;;20.50;99.90;;;;;;5064390;28;20564;-75
2023/07/30 09:33:02;;;;;;;8.43;3.08;;;20.50;99.90;;;;;;5056697;28;20197;-75
2023/07/30 09:35:32;;;;;;;12.70;3.30;;;20.80;99.90;;;;;;5063555;28;20256;-75
2023/07/30 09:38:03;;;;;;;9.05;3.13;;;20.90;99.90;;;;;;5066457;28;20281;-76
2023/07/30 09:40:35;;;;;;;6.32;2.60;;;21.20;99.90;;;;;;5068529;28;20309;-75
2023/07/30 09:43:04;;;;;;;9.20;2.92;;;21.50;99.90;;;;;;5033837;28;20217;-76
2023/07/30 09:45:36;;;;;;;8.02;3.25;;;21.70;99.90;;;;;;5067711;28;20235;-74
2023/07/30 09:48:05;;;;;;;7.75;2.78;;;21.80;99.90;;;;;;5037382;28;20205;-76
2023/07/30 09:50:34;;;;;;;8.77;2.95;;;22.10;99.90;;;;;;5054839;28;20212;-75
2023/07/30 09:53:02;;;;;;;5.97;2.83;;;22.40;99.90;;;;;;5066021;28;20279;-76
2023/07/30 09:55:29;;;;;;;9.80;2.92;;;22.40;99.90;;;;;;5068384;28;20243;-74
2023/07/30 09:57:56;;;;;;;6.82;2.63;;;22.30;99.90;;;;;;5067906;28;20216;-76
2023/07/30 10:00:22;;;;;;;6.57;2.53;;;22.20;99.90;;;;;;5068050;28;20275;-75
2023/07/30 10:02:50;;;;;;;10.85;2.30;;;22.10;99.90;;;;;;5047862;28;20200;-79
2023/07/30 10:05:23;;;;;;;9.68;3.10;;;21.80;99.90;;;;;;5066612;28;20204;-75
2023/07/30 10:07:55;;;;;;;10.90;2.90;;;21.80;99.90;;;;;;5064165;28;20200;-74
2023/07/30 10:10:24;;;;;;;8.65;2.35;;;21.90;99.90;;;;;;5050644;28;20252;-76
2023/07/30 10:12:52;;;;;;;7.72;2.53;;;22.00;99.90;;;;;;5065439;28;20250;-74
2023/07/30 10:15:21;;;;;;;5.75;2.40;;;21.80;99.90;;;;;;5062431;28;20200;-75
2023/07/30 10:17:48;;;;;;;8.27;2.40;;;21.80;99.90;;;;;;5058363;28;20205;-75
2023/07/30 10:20:33;;;;;;;7.30;2.00;;;21.90;99.90;;;;;;5066696;28;20228;-75
2023/07/30 10:23:01;;;;;;;9.05;2.30;;;22.00;99.90;;;;;;5066576;28;20646;-75
2023/07/30 10:25:46;;;;;;;5.20;2.00;;;22.00;99.90;;;;;;5067996;28;20231;-74
2023/07/30 10:28:33;;;;;;;8.70;2.22;;;22.00;99.90;;;;;;5043665;28;20328;-75
2023/07/30 10:31:08;;;;;;;5.75;2.25;;;22.30;99.90;;;;;;5067984;28;20236;-77
2023/07/30 10:33:53;;;;;;;5.75;2.28;;;22.60;99.90;;;;;;5067334;28;20200;-75
2023/07/30 10:36:33;;;;;;;7.22;2.00;;;23.00;99.90;;;;;;5058407;28;20331;-75
2023/07/30 10:39:21;;;;;;;4.70;2.08;;;23.00;99.90;;;;;;5064611;28;20215;-74
2023/07/30 10:41:50;;;;;;;5.68;1.80;;;23.20;99.90;;;;;;5057546;28;20221;-76
2023/07/30 10:44:33;;;;;;;6.15;1.75;;;23.30;99.90;;;;;;5067378;28;20652;-75
2023/07/30 10:47:02;;;;;;;5.28;1.70;;;23.30;99.90;;;;;;5064302;28;20239;-75
2023/07/30 10:49:35;;;;;;;7.47;2.10;;;23.10;99.90;;;;;;5066808;28;20726;-74
2023/07/30 10:52:02;;;;;;;2.60;1.20;;;23.10;99.90;;;;;;5051509;28;20204;-77
2023/07/30 10:54:34;;;;;;;3.58;1.55;;;23.20;99.90;;;;;;5062008;28;20188;-78
2023/07/30 10:57:02;;;;;;;5.10;1.70;;;23.40;99.90;;;;;;5062080;28;20228;-75
2023/07/30 10:59:38;;;;;;;5.32;1.42;;;23.60;99.90;;;;;;5060270;28;20227;-74
2023/07/30 11:02:05;;;;;;;5.35;1.27;;;23.90;99.90;;;;;;5059451;28;20331;-75
2023/07/30 11:04:34;;;;;;;4.47;1.40;;;23.90;99.90;;;;;;5058746;28;20212;-76
2023/07/30 11:07:03;;;;;;;4.97;1.40;;;23.80;99.90;;;;;;5064668;28;20238;-74
2023/07/30 11:09:30;;;;;;;3.83;1.40;;;23.60;99.90;;;;;;5063040;28;20639;-77
2023/07/30 11:11:58;;;;;;;4.65;1.25;;;23.50;99.90;;;;;;5065361;28;20220;-75
2023/07/30 11:14:26;;;;;;;7.00;1.70;;;23.30;99.90;;;;;;5053316;28;20220;-77
2023/07/30 11:16:58;;;;;;;4.50;1.60;;;23.20;99.90;;;;;;5058279;28;20201;-76
2023/07/30 11:19:29;;;;;;;3.95;1.40;;;23.20;99.90;;;;;;5061715;28;20307;-74
2023/07/30 11:21:57;;;;;;;6.32;2.05;;;23.30;99.90;;;;;;5061223;28;20216;-73
2023/07/30 11:24:35;;;;;;;5.85;1.38;;;23.40;99.90;;;;;;5059074;28;20724;-74
2023/07/30 11:27:03;;;;;;;3.70;1.40;;;23.50;99.90;;;;;;5066565;28;20789;-75
2023/07/30 11:29:30;;;;;;;2.80;1.30;;;23.50;99.90;;;;;;5064130;28;20209;-73
2023/07/30 11:32:02;;;;;;;4.28;1.73;;;23.50;99.90;;;;;;5066299;28;20214;-75
2023/07/30 11:34:30;;;;;;;3.10;1.30;;;23.60;99.90;;;;;;5062448;28;20669;-75
2023/07/30 11:37:01;;;;;;;6.22;1.75;;;23.30;99.90;;;;;;5061303;28;20216;-74
2023/07/30 11:39:28;;;;;;;3.05;1.40;;;23.20;99.90;;;;;;5061709;28;20231;-77
2023/07/30 11:41:55;;;;;;;3.95;1.35;;;22.80;99.90;;;;;;5063585;28;20291;-76
2023/07/30 11:44:34;;;;;;;7.75;1.88;;;22.80;99.90;;;;;;5067305;28;20209;-76
2023/07/30 11:47:01;;;;;;;2.75;1.23;;;22.80;99.90;;;;;;5065310;28;20691;-74
2023/07/30 11:49:28;;;;;;;4.53;1.23;;;22.90;99.90;;;;;;5064758;28;20203;-76
2023/07/30 11:52:08;;;;;;;3.67;1.20;;;23.00;99.90;;;;;;5067895;28;20209;-75
2023/07/30 11:54:36;;;;;;;4.63;1.55;;;23.20;99.90;;;;;;5067044;28;20304;-76
2023/07/30 11:57:03;;;;;;;4.25;1.55;;;23.10;99.90;;;;;;5071166;28;20281;-75
2023/07/30 11:59:32;;;;;;;6.78;1.63;;;23.10;99.90;;;;;;5070336;28;20227;-76
2023/07/30 12:01:59;;;;;;;4.15;1.30;;;23.10;99.90;;;;;;5058885;28;20312;-77
2023/07/30 12:04:31;;;;;;;3.38;1.23;;;22.90;99.90;;;;;;5069614;28;20311;-76
2023/07/30 12:06:58;;;;;;;4.25;1.52;;;22.80;99.90;;;;;;5068957;28;20201;-76
2023/07/30 12:09:30;;;;;;;4.40;1.65;;;22.60;99.90;;;;;;5064647;28;20557;-77
2023/07/30 12:11:59;;;;;;;2.65;1.67;;;22.40;99.90;;;;;;5065892;28;20598;-75
2023/07/30 12:14:31;;;;;;;3.40;1.38;;;22.30;99.90;;;;;;5047935;28;20201;-75
2023/07/30 12:17:01;;;;;;;3.10;1.38;;;22.30;99.90;;;;;;5069174;28;20710;-77
2023/07/30 12:19:28;;;;;;;6.22;1.55;;;22.50;99.90;;;;;;5070828;28;20707;-76
2023/07/30 12:21:55;;;;;;;8.68;2.08;;;22.50;99.90;;;;;;5042175;28;20193;-76
2023/07/30 12:24:22;;;;;;;14.63;4.47;;;22.60;99.90;;;;;;5068559;28;20211;-77
2023/07/30 12:26:49;;;;;;;10.10;3.10;;;22.70;99.90;;;;;;5068758;28;20220;-75
2023/07/30 12:29:19;;;;;;;4.78;1.23;;;23.00;99.90;;;;;;5065108;28;20208;-76
2023/07/30 12:31:47;;;;;;;8.90;2.35;;;23.10;99.90;;;;;;5068299;28;20269;-76
2023/07/30 12:34:15;;;;;;;17.63;3.60;;;23.20;99.90;;;;;;5049929;28;20225;-76
2023/07/30 12:36:42;;;;;;;7.40;3.10;;;23.20;99.90;;;;;;5049365;28;20563;-76
2023/07/30 12:39:09;;;;;;;7.18;2.00;;;23.30;99.90;;;;;;5068415;28;20200;-76
2023/07/30 12:41:36;;;;;;;5.75;1.60;;;23.30;99.90;;;;;;5067297;28;20228;-78
2023/07/30 12:44:04;;;;;;;2.17;0.95;;;23.40;99.90;;;;;;5060489;28;20204;-75
2023/07/30 12:46:32;;;;;;;4.57;1.10;;;23.50;99.90;;;;;;5055880;28;20258;-75